sensor_id;sensor_type;location;lat;lon;timestamp;P1;durP1;ratioP1;P2;durP2;ratioP2
57029;SDS011;42920;45.306;20.448;2022-10-16T00:01:29;13.27;;;5.95;;
57029;SDS011;42920;45.306;20.448;2022-10-16T00:03:56;14.57;;;6.70;;
57029;SDS011;42920;45.306;20.448;2022-10-16T00:06:23;9.88;;;5.68;;
57029;SDS011;42920;45.306;20.448;2022-10-16T00:08:51;12.68;;;6.57;;
57029;SDS011;42920;45.306;20.448;2022-10-16T00:11:18;11.57;;;6.55;;
57029;SDS011;42920;45.306;20.448;2022-10-16T00:13:46;11.05;;;5.63;;
57029;SDS011;42920;45.306;20.448;2022-10-16T00:16:13;16.02;;;6.38;;
57029;SDS011;42920;45.306;20.448;2022-10-16T00:18:39;11.90;;;6.15;;
57029;SDS011;42920;45.306;20.448;2022-10-16T00:21:10;10.10;;;5.72;;
57029;SDS011;42920;45.306;20.448;2022-10-16T00:23:38;11.73;;;5.35;;
57029;SDS011;42920;45.306;20.448;2022-10-16T00:26:05;13.05;;;5.18;;
57029;SDS011;42920;45.306;20.448;2022-10-16T00:28:33;8.88;;;5.63;;
57029;SDS011;42920;45.306;20.448;2022-10-16T00:31:02;8.90;;;5.25;;
57029;SDS011;42920;45.306;20.448;2022-10-16T00:33:32;12.48;;;6.43;;
57029;SDS011;42920;45.306;20.448;2022-10-16T00:35:59;11.88;;;5.95;;
57029;SDS011;42920;45.306;20.448;2022-10-16T00:38:25;11.20;;;6.20;;
57029;SDS011;42920;45.306;20.448;2022-10-16T00:40:51;10.80;;;5.30;;
57029;SDS011;42920;45.306;20.448;2022-10-16T00:43:36;10.93;;;5.97;;
57029;SDS011;42920;45.306;20.448;2022-10-16T00:51:31;12.70;;;5.32;;
57029;SDS011;42920;45.306;20.448;2022-10-16T00:54:02;11.13;;;6.03;;
57029;SDS011;42920;45.306;20.448;2022-10-16T00:56:31;8.77;;;5.70;;
57029;SDS011;42920;45.306;20.448;2022-10-16T00:58:58;9.38;;;5.72;;
57029;SDS011;42920;45.306;20.448;2022-10-16T01:01:26;11.45;;;6.32;;
57029;SDS011;42920;45.306;20.448;2022-10-16T01:03:52;12.43;;;6.15;;
57029;SDS011;42920;45.306;20.448;2022-10-16T01:06:20;12.50;;;6.10;;
57029;SDS011;42920;45.306;20.448;2022-10-16T01:09:28;13.63;;;5.35;;
57029;SDS011;42920;45.306;20.448;2022-10-16T01:12:00;11.55;;;5.47;;
57029;SDS011;42920;45.306;20.448;2022-10-16T01:14:53;8.15;;;5.10;;
57029;SDS011;42920;45.306;20.448;2022-10-16T01:20:14;12.23;;;6.03;;
57029;SDS011;42920;45.306;20.448;2022-10-16T01:28:36;14.75;;;6.60;;
57029;SDS011;42920;45.306;20.448;2022-10-16T01:31:07;15.05;;;7.25;;
57029;SDS011;42920;45.306;20.448;2022-10-16T01:33:42;9.73;;;5.55;;
57029;SDS011;42920;45.306;20.448;2022-10-16T01:36:13;11.98;;;6.15;;
57029;SDS011;42920;45.306;20.448;2022-10-16T01:38:44;13.98;;;6.85;;
57029;SDS011;42920;45.306;20.448;2022-10-16T01:41:19;11.15;;;6.50;;
57029;SDS011;42920;45.306;20.448;2022-10-16T01:43:52;15.55;;;6.05;;
57029;SDS011;42920;45.306;20.448;2022-10-16T01:46:23;10.82;;;6.20;;
57029;SDS011;42920;45.306;20.448;2022-10-16T01:48:50;10.95;;;6.75;;
57029;SDS011;42920;45.306;20.448;2022-10-16T01:51:17;11.20;;;6.25;;
57029;SDS011;42920;45.306;20.448;2022-10-16T01:53:46;10.65;;;6.47;;
57029;SDS011;42920;45.306;20.448;2022-10-16T01:56:16;13.73;;;6.78;;
57029;SDS011;42920;45.306;20.448;2022-10-16T01:58:47;9.85;;;6.45;;
57029;SDS011;42920;45.306;20.448;2022-10-16T02:01:18;11.55;;;6.63;;
57029;SDS011;42920;45.306;20.448;2022-10-16T02:03:46;12.93;;;7.22;;
57029;SDS011;42920;45.306;20.448;2022-10-16T02:06:17;17.05;;;7.13;;
57029;SDS011;42920;45.306;20.448;2022-10-16T02:08:42;13.70;;;7.05;;
57029;SDS011;42920;45.306;20.448;2022-10-16T02:11:09;10.68;;;7.00;;
57029;SDS011;42920;45.306;20.448;2022-10-16T02:13:41;13.52;;;7.53;;
57029;SDS011;42920;45.306;20.448;2022-10-16T02:16:13;15.00;;;7.90;;
57029;SDS011;42920;45.306;20.448;2022-10-16T02:18:40;12.55;;;6.47;;
57029;SDS011;42920;45.306;20.448;2022-10-16T02:21:13;14.48;;;7.53;;
57029;SDS011;42920;45.306;20.448;2022-10-16T02:29:45;17.92;;;7.68;;
57029;SDS011;42920;45.306;20.448;2022-10-16T02:32:17;12.20;;;8.10;;
57029;SDS011;42920;45.306;20.448;2022-10-16T02:34:46;14.10;;;7.43;;
57029;SDS011;42920;45.306;20.448;2022-10-16T02:37:14;9.25;;;6.93;;
57029;SDS011;42920;45.306;20.448;2022-10-16T02:39:41;11.82;;;6.97;;
57029;SDS011;42920;45.306;20.448;2022-10-16T02:42:13;15.95;;;8.05;;
57029;SDS011;42920;45.306;20.448;2022-10-16T02:44:39;10.32;;;7.03;;
57029;SDS011;42920;45.306;20.448;2022-10-16T02:47:05;12.65;;;6.88;;
57029;SDS011;42920;45.306;20.448;2022-10-16T02:49:31;13.65;;;8.27;;
57029;SDS011;42920;45.306;20.448;2022-10-16T02:51:57;17.80;;;6.63;;
57029;SDS011;42920;45.306;20.448;2022-10-16T02:54:22;11.05;;;7.07;;
57029;SDS011;42920;45.306;20.448;2022-10-16T02:56:49;19.10;;;6.78;;
57029;SDS011;42920;45.306;20.448;2022-10-16T02:59:15;13.55;;;6.95;;
57029;SDS011;42920;45.306;20.448;2022-10-16T03:01:41;18.70;;;7.90;;
57029;SDS011;42920;45.306;20.448;2022-10-16T03:04:06;22.10;;;7.15;;
57029;SDS011;42920;45.306;20.448;2022-10-16T03:06:32;11.95;;;6.63;;
57029;SDS011;42920;45.306;20.448;2022-10-16T03:08:58;15.00;;;6.78;;
57029;SDS011;42920;45.306;20.448;2022-10-16T03:11:24;13.60;;;7.00;;
57029;SDS011;42920;45.306;20.448;2022-10-16T03:13:49;17.05;;;7.53;;
57029;SDS011;42920;45.306;20.448;2022-10-16T03:16:15;12.82;;;7.22;;
57029;SDS011;42920;45.306;20.448;2022-10-16T03:18:41;13.30;;;7.88;;
57029;SDS011;42920;45.306;20.448;2022-10-16T03:21:06;11.75;;;7.05;;
57029;SDS011;42920;45.306;20.448;2022-10-16T03:23:32;15.25;;;7.28;;
57029;SDS011;42920;45.306;20.448;2022-10-16T03:25:58;10.30;;;6.53;;
57029;SDS011;42920;45.306;20.448;2022-10-16T03:28:24;13.00;;;7.10;;
57029;SDS011;42920;45.306;20.448;2022-10-16T03:30:49;15.13;;;8.77;;
57029;SDS011;42920;45.306;20.448;2022-10-16T03:33:15;17.27;;;7.72;;
57029;SDS011;42920;45.306;20.448;2022-10-16T03:35:41;14.50;;;7.50;;
57029;SDS011;42920;45.306;20.448;2022-10-16T03:38:06;10.88;;;7.00;;
57029;SDS011;42920;45.306;20.448;2022-10-16T03:40:32;22.77;;;8.60;;
57029;SDS011;42920;45.306;20.448;2022-10-16T03:42:58;11.70;;;7.45;;
57029;SDS011;42920;45.306;20.448;2022-10-16T03:45:24;11.85;;;7.82;;
57029;SDS011;42920;45.306;20.448;2022-10-16T03:47:51;12.07;;;7.63;;
57029;SDS011;42920;45.306;20.448;2022-10-16T03:50:16;13.35;;;7.72;;
57029;SDS011;42920;45.306;20.448;2022-10-16T03:52:42;11.32;;;6.68;;
57029;SDS011;42920;45.306;20.448;2022-10-16T03:55:08;10.40;;;7.13;;
57029;SDS011;42920;45.306;20.448;2022-10-16T03:57:34;13.73;;;7.43;;
57029;SDS011;42920;45.306;20.448;2022-10-16T03:59:59;15.77;;;8.05;;
57029;SDS011;42920;45.306;20.448;2022-10-16T04:02:26;12.35;;;7.95;;
57029;SDS011;42920;45.306;20.448;2022-10-16T04:04:51;10.25;;;7.90;;
57029;SDS011;42920;45.306;20.448;2022-10-16T04:07:17;13.90;;;7.95;;
57029;SDS011;42920;45.306;20.448;2022-10-16T04:09:43;14.70;;;7.75;;
57029;SDS011;42920;45.306;20.448;2022-10-16T04:12:09;14.10;;;8.48;;
57029;SDS011;42920;45.306;20.448;2022-10-16T04:14:34;12.27;;;8.07;;
57029;SDS011;42920;45.306;20.448;2022-10-16T04:17:00;14.23;;;8.20;;
57029;SDS011;42920;45.306;20.448;2022-10-16T04:19:26;18.23;;;8.30;;
57029;SDS011;42920;45.306;20.448;2022-10-16T04:21:52;15.82;;;8.27;;
57029;SDS011;42920;45.306;20.448;2022-10-16T04:24:17;14.80;;;8.07;;
57029;SDS011;42920;45.306;20.448;2022-10-16T04:26:43;12.35;;;7.95;;
57029;SDS011;42920;45.306;20.448;2022-10-16T04:29:09;14.68;;;9.00;;
57029;SDS011;42920;45.306;20.448;2022-10-16T04:31:34;15.40;;;9.02;;
57029;SDS011;42920;45.306;20.448;2022-10-16T04:34:00;15.18;;;8.85;;
57029;SDS011;42920;45.306;20.448;2022-10-16T04:36:26;11.05;;;7.90;;
57029;SDS011;42920;45.306;20.448;2022-10-16T04:38:51;12.35;;;8.55;;
57029;SDS011;42920;45.306;20.448;2022-10-16T04:41:17;15.48;;;8.88;;
57029;SDS011;42920;45.306;20.448;2022-10-16T04:43:43;12.02;;;8.07;;
57029;SDS011;42920;45.306;20.448;2022-10-16T04:46:09;12.95;;;7.40;;
57029;SDS011;42920;45.306;20.448;2022-10-16T04:48:35;14.05;;;8.10;;
57029;SDS011;42920;45.306;20.448;2022-10-16T04:51:00;11.93;;;8.05;;
57029;SDS011;42920;45.306;20.448;2022-10-16T04:53:26;21.25;;;8.43;;
57029;SDS011;42920;45.306;20.448;2022-10-16T04:55:52;13.07;;;7.50;;
57029;SDS011;42920;45.306;20.448;2022-10-16T04:58:18;11.57;;;7.78;;
57029;SDS011;42920;45.306;20.448;2022-10-16T05:00:44;16.00;;;8.43;;
57029;SDS011;42920;45.306;20.448;2022-10-16T05:03:11;15.00;;;7.90;;
57029;SDS011;42920;45.306;20.448;2022-10-16T05:05:41;13.93;;;8.38;;
57029;SDS011;42920;45.306;20.448;2022-10-16T05:08:09;13.18;;;8.05;;
57029;SDS011;42920;45.306;20.448;2022-10-16T05:10:37;16.80;;;8.32;;
57029;SDS011;42920;45.306;20.448;2022-10-16T05:13:03;16.02;;;8.80;;
57029;SDS011;42920;45.306;20.448;2022-10-16T05:15:29;15.82;;;8.80;;
57029;SDS011;42920;45.306;20.448;2022-10-16T05:17:55;12.23;;;7.93;;
57029;SDS011;42920;45.306;20.448;2022-10-16T05:20:21;27.40;;;9.73;;
57029;SDS011;42920;45.306;20.448;2022-10-16T05:22:47;20.33;;;8.60;;
57029;SDS011;42920;45.306;20.448;2022-10-16T05:25:13;17.08;;;8.55;;
57029;SDS011;42920;45.306;20.448;2022-10-16T05:27:39;11.77;;;7.70;;
57029;SDS011;42920;45.306;20.448;2022-10-16T05:30:05;12.73;;;6.93;;
57029;SDS011;42920;45.306;20.448;2022-10-16T05:32:31;15.77;;;8.45;;
57029;SDS011;42920;45.306;20.448;2022-10-16T05:34:57;12.10;;;7.50;;
57029;SDS011;42920;45.306;20.448;2022-10-16T05:37:25;13.27;;;8.00;;
57029;SDS011;42920;45.306;20.448;2022-10-16T05:39:52;13.25;;;7.50;;
57029;SDS011;42920;45.306;20.448;2022-10-16T05:42:17;14.82;;;7.40;;
57029;SDS011;42920;45.306;20.448;2022-10-16T05:44:44;17.95;;;8.35;;
57029;SDS011;42920;45.306;20.448;2022-10-16T05:47:10;16.35;;;7.95;;
57029;SDS011;42920;45.306;20.448;2022-10-16T05:49:37;19.63;;;8.10;;
57029;SDS011;42920;45.306;20.448;2022-10-16T05:52:03;12.80;;;7.50;;
57029;SDS011;42920;45.306;20.448;2022-10-16T05:54:29;12.85;;;7.25;;
57029;SDS011;42920;45.306;20.448;2022-10-16T05:56:55;16.13;;;8.02;;
57029;SDS011;42920;45.306;20.448;2022-10-16T05:59:20;19.35;;;7.47;;
57029;SDS011;42920;45.306;20.448;2022-10-16T06:01:46;15.88;;;7.70;;
57029;SDS011;42920;45.306;20.448;2022-10-16T06:04:12;14.10;;;6.97;;
57029;SDS011;42920;45.306;20.448;2022-10-16T06:06:37;16.75;;;8.18;;
57029;SDS011;42920;45.306;20.448;2022-10-16T06:09:03;11.95;;;7.80;;
57029;SDS011;42920;45.306;20.448;2022-10-16T06:11:30;14.25;;;7.22;;
57029;SDS011;42920;45.306;20.448;2022-10-16T06:13:57;13.80;;;7.20;;
57029;SDS011;42920;45.306;20.448;2022-10-16T06:16:27;15.40;;;7.18;;
57029;SDS011;42920;45.306;20.448;2022-10-16T06:18:53;15.57;;;7.40;;
57029;SDS011;42920;45.306;20.448;2022-10-16T06:21:24;15.77;;;7.85;;
57029;SDS011;42920;45.306;20.448;2022-10-16T06:23:51;14.73;;;7.53;;
57029;SDS011;42920;45.306;20.448;2022-10-16T06:26:18;15.45;;;8.05;;
57029;SDS011;42920;45.306;20.448;2022-10-16T06:28:46;13.15;;;7.50;;
57029;SDS011;42920;45.306;20.448;2022-10-16T06:31:12;11.40;;;7.13;;
57029;SDS011;42920;45.306;20.448;2022-10-16T06:33:38;13.55;;;7.72;;
57029;SDS011;42920;45.306;20.448;2022-10-16T06:36:08;12.23;;;7.40;;
57029;SDS011;42920;45.306;20.448;2022-10-16T06:38:39;14.35;;;6.80;;
57029;SDS011;42920;45.306;20.448;2022-10-16T06:41:06;9.95;;;6.97;;
57029;SDS011;42920;45.306;20.448;2022-10-16T06:43:33;14.45;;;7.32;;
57029;SDS011;42920;45.306;20.448;2022-10-16T06:46:02;12.85;;;6.95;;
57029;SDS011;42920;45.306;20.448;2022-10-16T06:48:29;9.45;;;6.68;;
57029;SDS011;42920;45.306;20.448;2022-10-16T06:53:33;11.80;;;6.82;;
57029;SDS011;42920;45.306;20.448;2022-10-16T06:56:11;10.15;;;6.53;;
57029;SDS011;42920;45.306;20.448;2022-10-16T06:58:45;10.75;;;6.50;;
57029;SDS011;42920;45.306;20.448;2022-10-16T07:01:11;14.45;;;7.38;;
57029;SDS011;42920;45.306;20.448;2022-10-16T07:03:38;13.18;;;6.28;;
57029;SDS011;42920;45.306;20.448;2022-10-16T07:06:05;16.95;;;6.80;;
57029;SDS011;42920;45.306;20.448;2022-10-16T07:08:33;18.02;;;6.50;;
57029;SDS011;42920;45.306;20.448;2022-10-16T07:11:00;10.38;;;6.05;;
57029;SDS011;42920;45.306;20.448;2022-10-16T07:13:28;13.50;;;6.60;;
57029;SDS011;42920;45.306;20.448;2022-10-16T07:15:54;9.98;;;6.38;;
57029;SDS011;42920;45.306;20.448;2022-10-16T07:18:19;11.20;;;5.55;;
57029;SDS011;42920;45.306;20.448;2022-10-16T07:20:45;14.73;;;6.00;;
57029;SDS011;42920;45.306;20.448;2022-10-16T07:23:11;8.88;;;5.28;;
57029;SDS011;42920;45.306;20.448;2022-10-16T07:25:37;9.98;;;6.40;;
57029;SDS011;42920;45.306;20.448;2022-10-16T07:28:02;12.25;;;6.00;;
57029;SDS011;42920;45.306;20.448;2022-10-16T07:30:28;11.02;;;5.82;;
57029;SDS011;42920;45.306;20.448;2022-10-16T07:32:54;11.55;;;5.32;;
57029;SDS011;42920;45.306;20.448;2022-10-16T07:35:20;8.45;;;5.65;;
57029;SDS011;42920;45.306;20.448;2022-10-16T07:37:46;11.88;;;5.60;;
57029;SDS011;42920;45.306;20.448;2022-10-16T07:40:12;7.80;;;5.35;;
57029;SDS011;42920;45.306;20.448;2022-10-16T07:42:38;15.20;;;5.63;;
57029;SDS011;42920;45.306;20.448;2022-10-16T07:45:04;11.68;;;5.55;;
57029;SDS011;42920;45.306;20.448;2022-10-16T07:47:30;12.27;;;5.10;;
57029;SDS011;42920;45.306;20.448;2022-10-16T07:49:55;10.95;;;5.38;;
57029;SDS011;42920;45.306;20.448;2022-10-16T07:52:21;8.32;;;4.57;;
57029;SDS011;42920;45.306;20.448;2022-10-16T07:54:47;9.95;;;4.60;;
57029;SDS011;42920;45.306;20.448;2022-10-16T07:57:13;11.85;;;5.22;;
57029;SDS011;42920;45.306;20.448;2022-10-16T07:59:44;25.65;;;6.40;;
57029;SDS011;42920;45.306;20.448;2022-10-16T08:02:11;10.55;;;5.43;;
57029;SDS011;42920;45.306;20.448;2022-10-16T08:04:36;15.13;;;5.03;;
57029;SDS011;42920;45.306;20.448;2022-10-16T08:07:02;8.88;;;5.00;;
57029;SDS011;42920;45.306;20.448;2022-10-16T08:09:28;22.52;;;6.38;;
57029;SDS011;42920;45.306;20.448;2022-10-16T08:11:53;12.05;;;5.78;;
57029;SDS011;42920;45.306;20.448;2022-10-16T08:14:19;15.07;;;4.60;;
57029;SDS011;42920;45.306;20.448;2022-10-16T08:16:45;9.65;;;4.72;;
57029;SDS011;42920;45.306;20.448;2022-10-16T08:19:11;8.60;;;4.63;;
57029;SDS011;42920;45.306;20.448;2022-10-16T08:21:38;14.50;;;5.50;;
57029;SDS011;42920;45.306;20.448;2022-10-16T08:24:04;8.88;;;4.22;;
57029;SDS011;42920;45.306;20.448;2022-10-16T08:26:30;8.02;;;4.90;;
57029;SDS011;42920;45.306;20.448;2022-10-16T08:28:56;10.25;;;4.40;;
57029;SDS011;42920;45.306;20.448;2022-10-16T08:31:21;20.92;;;6.22;;
57029;SDS011;42920;45.306;20.448;2022-10-16T08:33:48;10.18;;;4.50;;
57029;SDS011;42920;45.306;20.448;2022-10-16T08:36:14;11.45;;;5.07;;
57029;SDS011;42920;45.306;20.448;2022-10-16T08:38:41;11.75;;;4.78;;
57029;SDS011;42920;45.306;20.448;2022-10-16T08:49:07;9.43;;;5.15;;
57029;SDS011;42920;45.306;20.448;2022-10-16T08:51:37;8.90;;;4.60;;
57029;SDS011;42920;45.306;20.448;2022-10-16T08:56:47;10.70;;;5.30;;
57029;SDS011;42920;45.306;20.448;2022-10-16T08:59:13;9.25;;;4.43;;
57029;SDS011;42920;45.306;20.448;2022-10-16T09:01:41;7.35;;;4.65;;
57029;SDS011;42920;45.306;20.448;2022-10-16T09:06:58;8.55;;;4.70;;
57029;SDS011;42920;45.306;20.448;2022-10-16T09:12:19;12.38;;;4.30;;
57029;SDS011;42920;45.306;20.448;2022-10-16T09:25:29;9.82;;;4.57;;
57029;SDS011;42920;45.306;20.448;2022-10-16T09:27:56;13.13;;;7.90;;
57029;SDS011;42920;45.306;20.448;2022-10-16T09:30:22;8.27;;;4.20;;
57029;SDS011;42920;45.306;20.448;2022-10-16T09:32:51;8.57;;;4.07;;
57029;SDS011;42920;45.306;20.448;2022-10-16T09:35:22;8.30;;;4.25;;
57029;SDS011;42920;45.306;20.448;2022-10-16T09:37:56;7.10;;;4.35;;
57029;SDS011;42920;45.306;20.448;2022-10-16T09:40:38;8.38;;;3.85;;
57029;SDS011;42920;45.306;20.448;2022-10-16T09:48:25;16.13;;;4.50;;
57029;SDS011;42920;45.306;20.448;2022-10-16T09:50:57;10.98;;;5.50;;
57029;SDS011;42920;45.306;20.448;2022-10-16T09:53:24;9.75;;;4.53;;
57029;SDS011;42920;45.306;20.448;2022-10-16T09:56:02;10.43;;;4.18;;
57029;SDS011;42920;45.306;20.448;2022-10-16T09:58:30;10.38;;;4.30;;
57029;SDS011;42920;45.306;20.448;2022-10-16T10:00:57;11.63;;;4.60;;
57029;SDS011;42920;45.306;20.448;2022-10-16T10:11:51;10.57;;;4.10;;
57029;SDS011;42920;45.306;20.448;2022-10-16T10:17:17;22.52;;;4.93;;
57029;SDS011;42920;45.306;20.448;2022-10-16T10:19:59;10.40;;;4.60;;
57029;SDS011;42920;45.306;20.448;2022-10-16T10:27:46;9.85;;;4.50;;
57029;SDS011;42920;45.306;20.448;2022-10-16T10:38:41;9.70;;;4.43;;
57029;SDS011;42920;45.306;20.448;2022-10-16T10:41:27;6.82;;;4.25;;
57029;SDS011;42920;45.306;20.448;2022-10-16T10:46:42;12.18;;;3.83;;
57029;SDS011;42920;45.306;20.448;2022-10-16T10:49:40;6.68;;;3.80;;
57029;SDS011;42920;45.306;20.448;2022-10-16T10:58:14;6.88;;;3.50;;
57029;SDS011;42920;45.306;20.448;2022-10-16T11:03:53;10.63;;;4.57;;
57029;SDS011;42920;45.306;20.448;2022-10-16T11:06:38;8.40;;;4.97;;
57029;SDS011;42920;45.306;20.448;2022-10-16T11:09:30;12.00;;;4.72;;
57029;SDS011;42920;45.306;20.448;2022-10-16T11:14:48;10.02;;;5.10;;
57029;SDS011;42920;45.306;20.448;2022-10-16T11:17:34;8.43;;;4.80;;
57029;SDS011;42920;45.306;20.448;2022-10-16T11:20:11;11.23;;;4.30;;
57029;SDS011;42920;45.306;20.448;2022-10-16T11:22:58;8.47;;;4.03;;
57029;SDS011;42920;45.306;20.448;2022-10-16T11:25:30;9.98;;;4.03;;
57029;SDS011;42920;45.306;20.448;2022-10-16T11:30:43;8.80;;;4.45;;
57029;SDS011;42920;45.306;20.448;2022-10-16T11:33:39;6.90;;;3.90;;
57029;SDS011;42920;45.306;20.448;2022-10-16T11:41:35;8.05;;;4.28;;
57029;SDS011;42920;45.306;20.448;2022-10-16T11:47:35;8.75;;;3.47;;
57029;SDS011;42920;45.306;20.448;2022-10-16T11:50:17;12.02;;;4.00;;
57029;SDS011;42920;45.306;20.448;2022-10-16T11:56:04;10.27;;;3.92;;
57029;SDS011;42920;45.306;20.448;2022-10-16T12:07:08;7.63;;;4.82;;
57029;SDS011;42920;45.306;20.448;2022-10-16T12:09:47;7.85;;;3.63;;
57029;SDS011;42920;45.306;20.448;2022-10-16T12:17:48;6.25;;;3.78;;
57029;SDS011;42920;45.306;20.448;2022-10-16T12:20:19;5.22;;;3.38;;
57029;SDS011;42920;45.306;20.448;2022-10-16T12:22:55;7.45;;;4.45;;
57029;SDS011;42920;45.306;20.448;2022-10-16T12:27:58;9.55;;;4.35;;
57029;SDS011;42920;45.306;20.448;2022-10-16T12:30:24;6.65;;;4.00;;
57029;SDS011;42920;45.306;20.448;2022-10-16T12:32:59;7.47;;;4.63;;
57029;SDS011;42920;45.306;20.448;2022-10-16T12:35:45;9.02;;;4.60;;
57029;SDS011;42920;45.306;20.448;2022-10-16T12:38:18;7.57;;;4.32;;
57029;SDS011;42920;45.306;20.448;2022-10-16T12:41:07;6.82;;;3.97;;
57029;SDS011;42920;45.306;20.448;2022-10-16T12:46:20;7.10;;;3.67;;
57029;SDS011;42920;45.306;20.448;2022-10-16T12:48:48;7.18;;;3.88;;
57029;SDS011;42920;45.306;20.448;2022-10-16T12:51:23;9.30;;;3.83;;
57029;SDS011;42920;45.306;20.448;2022-10-16T12:54:04;18.42;;;4.50;;
57029;SDS011;42920;45.306;20.448;2022-10-16T13:27:36;9.20;;;4.40;;
57029;SDS011;42920;45.306;20.448;2022-10-16T13:30:12;10.57;;;4.40;;
57029;SDS011;42920;45.306;20.448;2022-10-16T13:32:46;9.88;;;5.18;;
57029;SDS011;42920;45.306;20.448;2022-10-16T13:35:19;6.50;;;4.13;;
57029;SDS011;42920;45.306;20.448;2022-10-16T13:38:02;15.07;;;4.35;;
57029;SDS011;42920;45.306;20.448;2022-10-16T13:40:47;10.43;;;4.72;;
57029;SDS011;42920;45.306;20.448;2022-10-16T13:43:18;10.43;;;4.47;;
57029;SDS011;42920;45.306;20.448;2022-10-16T13:45:56;6.78;;;4.35;;
57029;SDS011;42920;45.306;20.448;2022-10-16T13:48:29;15.55;;;4.57;;
57029;SDS011;42920;45.306;20.448;2022-10-16T13:51:03;9.40;;;4.78;;
57029;SDS011;42920;45.306;20.448;2022-10-16T13:53:32;12.68;;;4.40;;
57029;SDS011;42920;45.306;20.448;2022-10-16T13:55:59;11.30;;;4.03;;
57029;SDS011;42920;45.306;20.448;2022-10-16T13:58:26;8.07;;;4.13;;
57029;SDS011;42920;45.306;20.448;2022-10-16T14:01:00;11.73;;;5.60;;
57029;SDS011;42920;45.306;20.448;2022-10-16T14:03:28;10.27;;;5.63;;
57029;SDS011;42920;45.306;20.448;2022-10-16T14:05:57;9.43;;;5.38;;
57029;SDS011;42920;45.306;20.448;2022-10-16T14:08:26;8.48;;;4.43;;
57029;SDS011;42920;45.306;20.448;2022-10-16T14:10:55;7.15;;;3.90;;
57029;SDS011;42920;45.306;20.448;2022-10-16T14:13:34;9.13;;;4.18;;
57029;SDS011;42920;45.306;20.448;2022-10-16T14:16:10;9.50;;;4.22;;
57029;SDS011;42920;45.306;20.448;2022-10-16T14:18:41;9.82;;;4.80;;
57029;SDS011;42920;45.306;20.448;2022-10-16T14:21:15;14.40;;;4.78;;
57029;SDS011;42920;45.306;20.448;2022-10-16T14:23:42;10.15;;;4.28;;
57029;SDS011;42920;45.306;20.448;2022-10-16T14:28:34;8.82;;;3.85;;
57029;SDS011;42920;45.306;20.448;2022-10-16T14:31:01;15.98;;;4.68;;
57029;SDS011;42920;45.306;20.448;2022-10-16T14:33:45;9.07;;;4.00;;
57029;SDS011;42920;45.306;20.448;2022-10-16T14:38:38;10.15;;;4.60;;
57029;SDS011;42920;45.306;20.448;2022-10-16T14:41:06;9.23;;;4.35;;
57029;SDS011;42920;45.306;20.448;2022-10-16T14:48:41;7.38;;;3.97;;
57029;SDS011;42920;45.306;20.448;2022-10-16T14:51:08;11.02;;;4.22;;
57029;SDS011;42920;45.306;20.448;2022-10-16T14:53:39;10.85;;;4.53;;
57029;SDS011;42920;45.306;20.448;2022-10-16T14:56:09;12.23;;;4.10;;
57029;SDS011;42920;45.306;20.448;2022-10-16T14:58:46;11.77;;;4.05;;
57029;SDS011;42920;45.306;20.448;2022-10-16T15:01:12;43.65;;;7.18;;
57029;SDS011;42920;45.306;20.448;2022-10-16T15:03:38;11.18;;;4.20;;
57029;SDS011;42920;45.306;20.448;2022-10-16T15:06:04;14.38;;;4.25;;
57029;SDS011;42920;45.306;20.448;2022-10-16T15:08:39;9.10;;;4.72;;
57029;SDS011;42920;45.306;20.448;2022-10-16T15:11:05;6.07;;;4.25;;
57029;SDS011;42920;45.306;20.448;2022-10-16T15:13:37;11.10;;;4.00;;
57029;SDS011;42920;45.306;20.448;2022-10-16T15:16:03;16.15;;;4.22;;
57029;SDS011;42920;45.306;20.448;2022-10-16T15:18:28;7.95;;;4.10;;
57029;SDS011;42920;45.306;20.448;2022-10-16T15:20:55;28.92;;;5.63;;
57029;SDS011;42920;45.306;20.448;2022-10-16T15:23:21;20.65;;;4.80;;
57029;SDS011;42920;45.306;20.448;2022-10-16T15:25:51;12.93;;;5.63;;
57029;SDS011;42920;45.306;20.448;2022-10-16T15:28:19;11.63;;;4.22;;
57029;SDS011;42920;45.306;20.448;2022-10-16T15:30:48;13.45;;;5.82;;
57029;SDS011;42920;45.306;20.448;2022-10-16T15:33:16;9.25;;;3.85;;
57029;SDS011;42920;45.306;20.448;2022-10-16T15:35:47;13.73;;;4.97;;
57029;SDS011;42920;45.306;20.448;2022-10-16T15:38:14;10.90;;;5.13;;
57029;SDS011;42920;45.306;20.448;2022-10-16T15:40:41;15.98;;;5.47;;
57029;SDS011;42920;45.306;20.448;2022-10-16T15:43:07;10.55;;;4.70;;
57029;SDS011;42920;45.306;20.448;2022-10-16T15:45:33;16.35;;;5.28;;
57029;SDS011;42920;45.306;20.448;2022-10-16T15:47:59;11.88;;;4.47;;
57029;SDS011;42920;45.306;20.448;2022-10-16T15:50:25;9.70;;;5.32;;
57029;SDS011;42920;45.306;20.448;2022-10-16T15:52:52;10.73;;;5.03;;
57029;SDS011;42920;45.306;20.448;2022-10-16T15:55:17;12.88;;;4.82;;
57029;SDS011;42920;45.306;20.448;2022-10-16T15:57:44;16.00;;;6.40;;
57029;SDS011;42920;45.306;20.448;2022-10-16T16:00:15;9.80;;;5.05;;
57029;SDS011;42920;45.306;20.448;2022-10-16T16:02:43;12.38;;;5.88;;
57029;SDS011;42920;45.306;20.448;2022-10-16T16:05:14;12.02;;;5.47;;
57029;SDS011;42920;45.306;20.448;2022-10-16T16:07:40;12.05;;;5.93;;
57029;SDS011;42920;45.306;20.448;2022-10-16T16:10:06;9.55;;;6.55;;
57029;SDS011;42920;45.306;20.448;2022-10-16T16:12:34;14.38;;;6.18;;
57029;SDS011;42920;45.306;20.448;2022-10-16T16:15:00;16.30;;;6.22;;
57029;SDS011;42920;45.306;20.448;2022-10-16T16:17:26;19.00;;;5.40;;
57029;SDS011;42920;45.306;20.448;2022-10-16T16:19:52;16.65;;;6.30;;
57029;SDS011;42920;45.306;20.448;2022-10-16T16:22:18;13.32;;;5.10;;
57029;SDS011;42920;45.306;20.448;2022-10-16T16:24:44;8.77;;;5.63;;
57029;SDS011;42920;45.306;20.448;2022-10-16T16:27:10;11.63;;;5.90;;
57029;SDS011;42920;45.306;20.448;2022-10-16T16:29:36;18.05;;;5.85;;
57029;SDS011;42920;45.306;20.448;2022-10-16T16:32:01;11.40;;;5.85;;
57029;SDS011;42920;45.306;20.448;2022-10-16T16:34:27;13.88;;;6.35;;
57029;SDS011;42920;45.306;20.448;2022-10-16T16:36:54;15.10;;;6.40;;
57029;SDS011;42920;45.306;20.448;2022-10-16T16:39:21;18.63;;;6.57;;
57029;SDS011;42920;45.306;20.448;2022-10-16T16:41:47;20.15;;;6.47;;
57029;SDS011;42920;45.306;20.448;2022-10-16T16:44:13;17.83;;;6.18;;
57029;SDS011;42920;45.306;20.448;2022-10-16T16:46:41;19.95;;;6.78;;
57029;SDS011;42920;45.306;20.448;2022-10-16T16:49:09;17.63;;;6.65;;
57029;SDS011;42920;45.306;20.448;2022-10-16T16:51:36;18.73;;;6.40;;
57029;SDS011;42920;45.306;20.448;2022-10-16T16:54:02;19.25;;;7.07;;
57029;SDS011;42920;45.306;20.448;2022-10-16T16:56:28;16.55;;;6.45;;
57029;SDS011;42920;45.306;20.448;2022-10-16T16:58:55;14.35;;;6.60;;
57029;SDS011;42920;45.306;20.448;2022-10-16T17:01:22;19.38;;;7.40;;
57029;SDS011;42920;45.306;20.448;2022-10-16T17:03:50;17.25;;;7.28;;
57029;SDS011;42920;45.306;20.448;2022-10-16T17:06:18;12.57;;;6.88;;
57029;SDS011;42920;45.306;20.448;2022-10-16T17:08:45;15.15;;;6.93;;
57029;SDS011;42920;45.306;20.448;2022-10-16T17:11:12;13.65;;;6.50;;
57029;SDS011;42920;45.306;20.448;2022-10-16T17:13:39;15.02;;;6.20;;
57029;SDS011;42920;45.306;20.448;2022-10-16T17:16:05;13.60;;;6.18;;
57029;SDS011;42920;45.306;20.448;2022-10-16T17:18:32;13.80;;;6.95;;
57029;SDS011;42920;45.306;20.448;2022-10-16T17:20:59;15.65;;;6.25;;
57029;SDS011;42920;45.306;20.448;2022-10-16T17:23:26;11.23;;;6.18;;